ENY96 KRDU-KCLT
Flight info
| Callsign | ENY96 |
|---|---|
| Flight time | 0h 41m |
| Altitude | 18000 |
| Route | CATAR SDAIL CHSLY6 |
| Aircraft | E75L/M-SDE3GILORVW/S |
Departure
| Time | 2026-05-08 01:44 |
|---|---|
| Airport | Raleigh-Durham International Airport (KRDU) |
Arrival
| Time | 2026-05-08 02:25 |
|---|---|
| Airport | Charlotte Douglas International Airport (KCLT) |
| Time | Latitude | Longitude | Altitude | Speed | Heading |
|---|---|---|---|---|---|
| 2026-05-08 01:20 | 35.87901 | -78.79092 | 397 ft | 0 kts | 315° |
| 2026-05-08 01:32 | 35.87891 | -78.79080 | 398 ft | 2 kts | 315° |
| 2026-05-08 01:33 | 35.87880 | -78.79067 | 399 ft | 2 kts | 316° |
| 2026-05-08 01:33 | 35.87870 | -78.79058 | 400 ft | 1 kts | 0° |
| 2026-05-08 01:33 | 35.87859 | -78.79065 | 399 ft | 2 kts | 54° |
| 2026-05-08 01:33 | 35.87849 | -78.79079 | 399 ft | 1 kts | 41° |
| 2026-05-08 01:34 | 35.87848 | -78.79080 | 399 ft | 0 kts | 41° |
| 2026-05-08 01:36 | 35.87849 | -78.79080 | 399 ft | 0 kts | 41° |
| 2026-05-08 01:36 | 35.87863 | -78.79064 | 399 ft | 3 kts | 43° |
| 2026-05-08 01:36 | 35.87903 | -78.79016 | 400 ft | 9 kts | 45° |
| 2026-05-08 01:36 | 35.87963 | -78.78986 | 399 ft | 10 kts | 336° |
| 2026-05-08 01:37 | 35.88030 | -78.79062 | 394 ft | 15 kts | 314° |
| 2026-05-08 01:37 | 35.88111 | -78.79160 | 389 ft | 17 kts | 347° |
| 2026-05-08 01:37 | 35.88164 | -78.79117 | 389 ft | 0 kts | 45° |
| 2026-05-08 01:37 | 35.88164 | -78.79116 | 389 ft | 0 kts | 45° |
| 2026-05-08 01:38 | 35.88178 | -78.79099 | 389 ft | 9 kts | 45° |
| 2026-05-08 01:38 | 35.88220 | -78.79044 | 390 ft | 4 kts | 73° |
| 2026-05-08 01:38 | 35.88221 | -78.79012 | 392 ft | 3 kts | 101° |
| 2026-05-08 01:38 | 35.88199 | -78.78989 | 394 ft | 6 kts | 178° |
| 2026-05-08 01:39 | 35.88145 | -78.79039 | 393 ft | 14 kts | 224° |
| 2026-05-08 01:39 | 35.88049 | -78.79160 | 390 ft | 21 kts | 226° |
| 2026-05-08 01:39 | 35.87936 | -78.79298 | 387 ft | 24 kts | 225° |
| 2026-05-08 01:39 | 35.87808 | -78.79456 | 383 ft | 26 kts | 225° |
| 2026-05-08 01:40 | 35.87671 | -78.79626 | 379 ft | 29 kts | 225° |
| 2026-05-08 01:40 | 35.87521 | -78.79811 | 375 ft | 31 kts | 225° |
| 2026-05-08 01:40 | 35.87384 | -78.79974 | 369 ft | 20 kts | 225° |
| 2026-05-08 01:40 | 35.87366 | -78.80069 | 365 ft | 7 kts | 313° |
| 2026-05-08 01:41 | 35.87389 | -78.80102 | 363 ft | 0 kts | 315° |
| 2026-05-08 01:42 | 35.87392 | -78.80106 | 363 ft | 2 kts | 315° |
| 2026-05-08 01:43 | 35.87425 | -78.80145 | 362 ft | 9 kts | 317° |
| 2026-05-08 01:43 | 35.87484 | -78.80146 | 362 ft | 9 kts | 40° |
| 2026-05-08 01:43 | 35.87530 | -78.80091 | 363 ft | 9 kts | 42° |
| 2026-05-08 01:43 | 35.87638 | -78.79960 | 366 ft | 52 kts | 45° |
| 2026-05-08 01:44 | 35.88050 | -78.79450 | 376 ft | 113 kts | 45° |
| 2026-05-08 01:44 | 35.88707 | -78.78646 | 500 ft | 148 kts | 43° |
| 2026-05-08 01:44 | 35.89540 | -78.77696 | 798 ft | 177 kts | 41° |
| 2026-05-08 01:44 | 35.90451 | -78.76618 | 1250 ft | 194 kts | 44° |
| 2026-05-08 01:45 | 35.91458 | -78.75352 | 1765 ft | 221 kts | 44° |
| 2026-05-08 01:45 | 35.92581 | -78.73909 | 2307 ft | 244 kts | 44° |
| 2026-05-08 01:45 | 35.93748 | -78.72360 | 2992 ft | 251 kts | 44° |
| 2026-05-08 01:45 | 35.94914 | -78.70767 | 3642 ft | 256 kts | 44° |
| 2026-05-08 01:46 | 35.96107 | -78.69122 | 4312 ft | 260 kts | 44° |
| 2026-05-08 01:46 | 35.97306 | -78.67435 | 4963 ft | 264 kts | 44° |
| 2026-05-08 01:46 | 35.98515 | -78.65733 | 5610 ft | 267 kts | 44° |
| 2026-05-08 01:46 | 35.99833 | -78.64107 | 5948 ft | 270 kts | 27° |
| 2026-05-08 01:47 | 36.01592 | -78.63479 | 6012 ft | 261 kts | 354° |
| 2026-05-08 01:47 | 36.03241 | -78.64197 | 6024 ft | 256 kts | 320° |
| 2026-05-08 01:47 | 36.04216 | -78.65968 | 6012 ft | 256 kts | 286° |
| 2026-05-08 01:48 | 36.03173 | -78.70151 | 6028 ft | 274 kts | 238° |
| 2026-05-08 01:48 | 36.02070 | -78.72053 | 6004 ft | 271 kts | 238° |
| 2026-05-08 01:48 | 36.00969 | -78.73946 | 5997 ft | 271 kts | 239° |
| 2026-05-08 01:48 | 35.99874 | -78.75829 | 5992 ft | 270 kts | 238° |
| 2026-05-08 01:49 | 35.98764 | -78.77737 | 5998 ft | 271 kts | 238° |
| 2026-05-08 01:49 | 35.97667 | -78.79620 | 5997 ft | 273 kts | 239° |
| 2026-05-08 01:49 | 35.96559 | -78.81523 | 5998 ft | 272 kts | 238° |
| 2026-05-08 01:49 | 35.95467 | -78.83396 | 5997 ft | 272 kts | 238° |
| 2026-05-08 01:50 | 35.94363 | -78.85288 | 5997 ft | 271 kts | 239° |
| 2026-05-08 01:50 | 35.93248 | -78.87200 | 5996 ft | 272 kts | 238° |
| 2026-05-08 01:50 | 35.92163 | -78.89057 | 5994 ft | 272 kts | 238° |
| 2026-05-08 01:50 | 35.91052 | -78.90958 | 5996 ft | 270 kts | 238° |
| 2026-05-08 01:51 | 35.90040 | -78.92889 | 5988 ft | 267 kts | 254° |
| 2026-05-08 01:51 | 35.89741 | -78.95101 | 6028 ft | 263 kts | 267° |
| 2026-05-08 01:51 | 35.89483 | -78.97317 | 6538 ft | 261 kts | 264° |
| 2026-05-08 01:51 | 35.89160 | -78.99483 | 7177 ft | 263 kts | 262° |
| 2026-05-08 01:52 | 35.88789 | -79.01694 | 7815 ft | 262 kts | 261° |
| 2026-05-08 01:52 | 35.88407 | -79.03857 | 8439 ft | 261 kts | 259° |
| 2026-05-08 01:52 | 35.88012 | -79.06036 | 9072 ft | 258 kts | 258° |
| 2026-05-08 01:52 | 35.87617 | -79.08183 | 9701 ft | 258 kts | 258° |
| 2026-05-08 01:53 | 35.87223 | -79.10310 | 10332 ft | 256 kts | 258° |
| 2026-05-08 01:53 | 35.86827 | -79.12441 | 10965 ft | 257 kts | 258° |
| 2026-05-08 01:53 | 35.86429 | -79.14581 | 11592 ft | 260 kts | 258° |
| 2026-05-08 01:53 | 35.86023 | -79.16754 | 12221 ft | 265 kts | 258° |
| 2026-05-08 01:54 | 35.85609 | -79.18977 | 12855 ft | 272 kts | 258° |
| 2026-05-08 01:54 | 35.85185 | -79.21241 | 13474 ft | 279 kts | 258° |
| 2026-05-08 01:54 | 35.84740 | -79.23618 | 14109 ft | 287 kts | 258° |
| 2026-05-08 01:54 | 35.84290 | -79.26023 | 14731 ft | 293 kts | 259° |
| 2026-05-08 01:55 | 35.83828 | -79.28489 | 15347 ft | 299 kts | 259° |
| 2026-05-08 01:55 | 35.83832 | -79.31012 | 15954 ft | 300 kts | 282° |
| 2026-05-08 01:55 | 35.84397 | -79.33472 | 16587 ft | 302 kts | 284° |
| 2026-05-08 01:55 | 35.84985 | -79.35919 | 17184 ft | 302 kts | 284° |
| 2026-05-08 01:56 | 35.85585 | -79.38404 | 17774 ft | 302 kts | 284° |
| 2026-05-08 01:56 | 35.86188 | -79.40900 | 17951 ft | 307 kts | 284° |
| 2026-05-08 01:56 | 35.86786 | -79.43374 | 17989 ft | 304 kts | 284° |
| 2026-05-08 01:56 | 35.87388 | -79.45863 | 17993 ft | 303 kts | 284° |
| 2026-05-08 01:57 | 35.87990 | -79.48352 | 18003 ft | 304 kts | 284° |
| 2026-05-08 01:57 | 35.88596 | -79.50866 | 18001 ft | 303 kts | 284° |
| 2026-05-08 01:57 | 35.89198 | -79.53362 | 18005 ft | 304 kts | 284° |
| 2026-05-08 01:57 | 35.89798 | -79.55850 | 18006 ft | 305 kts | 284° |
| 2026-05-08 01:58 | 35.90397 | -79.58340 | 18009 ft | 302 kts | 284° |
| 2026-05-08 01:58 | 35.90991 | -79.60814 | 18004 ft | 303 kts | 284° |
| 2026-05-08 01:58 | 35.91590 | -79.63306 | 18002 ft | 302 kts | 284° |
| 2026-05-08 01:58 | 35.92184 | -79.65785 | 18010 ft | 304 kts | 284° |
| 2026-05-08 01:59 | 35.92784 | -79.68285 | 18011 ft | 303 kts | 284° |
| 2026-05-08 01:59 | 35.93381 | -79.70779 | 18018 ft | 304 kts | 283° |
| 2026-05-08 01:59 | 35.93974 | -79.73257 | 18021 ft | 302 kts | 284° |
| 2026-05-08 01:59 | 35.94567 | -79.75736 | 18015 ft | 304 kts | 284° |
| 2026-05-08 02:00 | 35.95162 | -79.78232 | 18011 ft | 302 kts | 283° |
| 2026-05-08 02:00 | 35.95713 | -79.80763 | 18006 ft | 303 kts | 275° |
| 2026-05-08 02:00 | 35.95531 | -79.83317 | 18038 ft | 302 kts | 261° |
| 2026-05-08 02:00 | 35.95101 | -79.85840 | 18011 ft | 304 kts | 261° |
| 2026-05-08 02:01 | 35.94658 | -79.88373 | 18017 ft | 301 kts | 261° |
| 2026-05-08 02:01 | 35.94207 | -79.90917 | 18015 ft | 302 kts | 260° |
| 2026-05-08 02:01 | 35.93758 | -79.93439 | 18015 ft | 302 kts | 260° |
| 2026-05-08 02:01 | 35.93304 | -79.95976 | 18016 ft | 304 kts | 260° |
| 2026-05-08 02:02 | 35.92855 | -79.98487 | 18003 ft | 301 kts | 260° |
| 2026-05-08 02:02 | 35.92405 | -80.00989 | 17988 ft | 295 kts | 261° |
| 2026-05-08 02:02 | 35.91967 | -80.03425 | 17990 ft | 289 kts | 260° |
| 2026-05-08 02:02 | 35.91533 | -80.05840 | 18005 ft | 290 kts | 260° |
| 2026-05-08 02:03 | 35.91093 | -80.08282 | 18005 ft | 291 kts | 261° |
| 2026-05-08 02:03 | 35.90658 | -80.10694 | 17996 ft | 289 kts | 260° |
| 2026-05-08 02:03 | 35.90219 | -80.13129 | 18001 ft | 290 kts | 260° |
| 2026-05-08 02:03 | 35.89783 | -80.15536 | 18005 ft | 291 kts | 261° |
| 2026-05-08 02:04 | 35.89340 | -80.17984 | 17615 ft | 294 kts | 260° |
| 2026-05-08 02:04 | 35.88880 | -80.20399 | 17202 ft | 292 kts | 257° |
| 2026-05-08 02:04 | 35.88262 | -80.22794 | 16791 ft | 292 kts | 256° |
| 2026-05-08 02:04 | 35.87644 | -80.25151 | 16378 ft | 292 kts | 256° |
| 2026-05-08 02:05 | 35.87023 | -80.27513 | 15965 ft | 290 kts | 255° |
| 2026-05-08 02:05 | 35.86406 | -80.29861 | 15551 ft | 290 kts | 255° |
| 2026-05-08 02:05 | 35.85781 | -80.32240 | 15142 ft | 292 kts | 256° |
| 2026-05-08 02:05 | 35.85163 | -80.34586 | 14727 ft | 290 kts | 255° |
| 2026-05-08 02:06 | 35.84539 | -80.36951 | 14302 ft | 290 kts | 255° |
| 2026-05-08 02:06 | 35.83913 | -80.39325 | 13884 ft | 291 kts | 255° |
| 2026-05-08 02:06 | 35.83110 | -80.41579 | 13459 ft | 297 kts | 237° |
| 2026-05-08 02:06 | 35.81508 | -80.43263 | 13085 ft | 305 kts | 220° |
| 2026-05-08 02:07 | 35.79731 | -80.44685 | 12675 ft | 305 kts | 219° |
| 2026-05-08 02:07 | 35.77977 | -80.46079 | 12255 ft | 300 kts | 219° |
| 2026-05-08 02:07 | 35.76225 | -80.47469 | 12033 ft | 297 kts | 219° |
| 2026-05-08 02:07 | 35.74472 | -80.48858 | 12012 ft | 297 kts | 219° |
| 2026-05-08 02:08 | 35.72729 | -80.50238 | 12007 ft | 298 kts | 219° |
| 2026-05-08 02:08 | 35.70984 | -80.51617 | 12009 ft | 300 kts | 219° |
| 2026-05-08 02:08 | 35.69231 | -80.53001 | 12010 ft | 300 kts | 219° |
| 2026-05-08 02:08 | 35.67472 | -80.54346 | 12007 ft | 300 kts | 218° |
| 2026-05-08 02:09 | 35.65675 | -80.55711 | 12008 ft | 301 kts | 218° |
| 2026-05-08 02:09 | 35.63915 | -80.57048 | 12001 ft | 300 kts | 218° |
| 2026-05-08 02:09 | 35.62120 | -80.58410 | 12008 ft | 301 kts | 218° |
| 2026-05-08 02:09 | 35.60342 | -80.59759 | 12011 ft | 300 kts | 218° |
| 2026-05-08 02:10 | 35.58558 | -80.61110 | 12011 ft | 299 kts | 218° |
| 2026-05-08 02:10 | 35.56791 | -80.62449 | 12010 ft | 302 kts | 218° |
| 2026-05-08 02:10 | 35.54997 | -80.63808 | 12010 ft | 303 kts | 218° |
| 2026-05-08 02:10 | 35.53218 | -80.65142 | 12010 ft | 301 kts | 217° |
| 2026-05-08 02:11 | 35.51407 | -80.66495 | 12010 ft | 303 kts | 217° |
| 2026-05-08 02:11 | 35.49616 | -80.67828 | 11991 ft | 292 kts | 217° |
| 2026-05-08 02:11 | 35.47919 | -80.69091 | 11826 ft | 280 kts | 218° |
| 2026-05-08 02:11 | 35.46274 | -80.70318 | 11564 ft | 275 kts | 218° |
| 2026-05-08 02:12 | 35.44655 | -80.71525 | 11315 ft | 275 kts | 218° |
| 2026-05-08 02:12 | 35.43036 | -80.72730 | 11068 ft | 272 kts | 217° |
| 2026-05-08 02:12 | 35.41402 | -80.73947 | 10817 ft | 273 kts | 217° |
| 2026-05-08 02:12 | 35.39791 | -80.75145 | 10567 ft | 271 kts | 217° |
| 2026-05-08 02:13 | 35.38177 | -80.76344 | 10315 ft | 269 kts | 217° |
| 2026-05-08 02:13 | 35.36572 | -80.77537 | 10069 ft | 267 kts | 217° |
| 2026-05-08 02:13 | 35.35002 | -80.78702 | 10012 ft | 264 kts | 217° |
| 2026-05-08 02:13 | 35.33470 | -80.79835 | 9985 ft | 244 kts | 217° |
| 2026-05-08 02:14 | 35.32082 | -80.80862 | 9972 ft | 225 kts | 218° |
| 2026-05-08 02:14 | 35.30771 | -80.81834 | 9983 ft | 218 kts | 219° |
| 2026-05-08 02:14 | 35.29458 | -80.82812 | 9751 ft | 221 kts | 218° |
| 2026-05-08 02:14 | 35.28046 | -80.83609 | 9473 ft | 235 kts | 194° |
| 2026-05-08 02:15 | 35.26423 | -80.83583 | 9265 ft | 242 kts | 184° |
| 2026-05-08 02:15 | 35.24742 | -80.83445 | 9004 ft | 241 kts | 184° |
| 2026-05-08 02:15 | 35.23079 | -80.83308 | 8735 ft | 241 kts | 183° |
| 2026-05-08 02:15 | 35.21402 | -80.83168 | 8467 ft | 241 kts | 183° |
| 2026-05-08 02:16 | 35.19739 | -80.83029 | 8176 ft | 242 kts | 182° |
| 2026-05-08 02:16 | 35.18056 | -80.82889 | 7858 ft | 242 kts | 182° |
| 2026-05-08 02:16 | 35.16381 | -80.82749 | 7539 ft | 241 kts | 182° |
| 2026-05-08 02:16 | 35.14710 | -80.82610 | 7222 ft | 240 kts | 181° |
| 2026-05-08 02:17 | 35.13049 | -80.82471 | 6851 ft | 240 kts | 181° |
| 2026-05-08 02:17 | 35.11391 | -80.82333 | 6460 ft | 240 kts | 180° |
| 2026-05-08 02:17 | 35.09756 | -80.82198 | 6078 ft | 241 kts | 180° |
| 2026-05-08 02:17 | 35.08072 | -80.82058 | 5679 ft | 242 kts | 180° |
| 2026-05-08 02:18 | 35.06397 | -80.81922 | 5288 ft | 243 kts | 179° |
| 2026-05-08 02:18 | 35.04702 | -80.81789 | 4895 ft | 244 kts | 178° |
| 2026-05-08 02:18 | 35.03008 | -80.81660 | 4503 ft | 245 kts | 178° |
| 2026-05-08 02:18 | 35.01310 | -80.81579 | 4105 ft | 245 kts | 189° |
| 2026-05-08 02:19 | 34.99813 | -80.82425 | 3740 ft | 236 kts | 231° |
| 2026-05-08 02:19 | 34.99150 | -80.84123 | 3400 ft | 220 kts | 273° |
| 2026-05-08 02:19 | 34.99237 | -80.85963 | 3074 ft | 215 kts | 282° |
| 2026-05-08 02:19 | 34.99669 | -80.87597 | 3009 ft | 199 kts | 316° |
| 2026-05-08 02:20 | 35.00662 | -80.88721 | 3023 ft | 200 kts | 320° |
| 2026-05-08 02:20 | 35.01644 | -80.89935 | 3016 ft | 198 kts | 317° |
| 2026-05-08 02:20 | 35.02558 | -80.91187 | 3056 ft | 195 kts | 317° |
| 2026-05-08 02:20 | 35.03694 | -80.91919 | 3015 ft | 187 kts | 353° |
| 2026-05-08 02:21 | 35.04999 | -80.92087 | 3047 ft | 187 kts | 355° |
| 2026-05-08 02:21 | 35.06286 | -80.92223 | 3067 ft | 187 kts | 356° |
| 2026-05-08 02:21 | 35.07507 | -80.92336 | 3178 ft | 163 kts | 357° |
| 2026-05-08 02:21 | 35.08601 | -80.92432 | 2945 ft | 154 kts | 357° |
| 2026-05-08 02:22 | 35.09639 | -80.92522 | 2747 ft | 149 kts | 357° |
| 2026-05-08 02:22 | 35.10674 | -80.92609 | 2559 ft | 150 kts | 358° |
| 2026-05-08 02:22 | 35.11711 | -80.92698 | 2366 ft | 150 kts | 358° |
| 2026-05-08 02:22 | 35.12752 | -80.92786 | 2164 ft | 147 kts | 358° |
| 2026-05-08 02:23 | 35.13712 | -80.92870 | 1953 ft | 131 kts | 358° |
| 2026-05-08 02:23 | 35.14572 | -80.92943 | 1773 ft | 118 kts | 358° |
| 2026-05-08 02:23 | 35.15389 | -80.93012 | 1628 ft | 119 kts | 358° |
| 2026-05-08 02:23 | 35.16195 | -80.93080 | 1498 ft | 114 kts | 358° |
| 2026-05-08 02:24 | 35.16982 | -80.93147 | 1342 ft | 112 kts | 358° |
| 2026-05-08 02:24 | 35.17773 | -80.93214 | 1193 ft | 114 kts | 358° |
| 2026-05-08 02:24 | 35.18560 | -80.93282 | 1045 ft | 116 kts | 358° |
| 2026-05-08 02:24 | 35.19381 | -80.93352 | 889 ft | 118 kts | 358° |
| 2026-05-08 02:25 | 35.20200 | -80.93420 | 760 ft | 121 kts | 358° |
| 2026-05-08 02:25 | 35.20996 | -80.93486 | 721 ft | 103 kts | 357° |
| 2026-05-08 02:25 | 35.21538 | -80.93535 | 732 ft | 52 kts | 357° |
| 2026-05-08 02:25 | 35.21727 | -80.93551 | 735 ft | 3 kts | 355° |
| 2026-05-08 02:26 | 35.21759 | -80.93555 | 735 ft | 10 kts | 355° |
| 2026-05-08 02:26 | 35.21875 | -80.93572 | 735 ft | 19 kts | 331° |
| 2026-05-08 02:26 | 35.21865 | -80.93664 | 735 ft | 12 kts | 224° |
| 2026-05-08 02:26 | 35.21791 | -80.93765 | 732 ft | 20 kts | 230° |
| 2026-05-08 02:27 | 35.21737 | -80.93906 | 728 ft | 17 kts | 311° |
| 2026-05-08 02:27 | 35.21779 | -80.94022 | 727 ft | 18 kts | 234° |
| 2026-05-08 02:27 | 35.21682 | -80.94148 | 722 ft | 22 kts | 226° |
| 2026-05-08 02:27 | 35.21678 | -80.94302 | 719 ft | 18 kts | 280° |
| 2026-05-08 02:28 | 35.21768 | -80.94347 | 720 ft | 14 kts | 356° |
| 2026-05-08 02:28 | 35.21863 | -80.94381 | 722 ft | 14 kts | 330° |
| 2026-05-08 02:28 | 35.21909 | -80.94453 | 722 ft | 5 kts | 295° |
| 2026-05-08 02:28 | 35.21914 | -80.94466 | 722 ft | 0 kts | 295° |